createdAt,value
2023-01-07T00:01:49.041Z,7.22
2023-01-07T00:04:16.441Z,8.13
2023-01-07T00:06:44.714Z,7.63
2023-01-07T00:09:16.752Z,7.18
2023-01-07T00:11:43.855Z,7.68
2023-01-07T00:14:12.892Z,7.55
2023-01-07T00:16:40.674Z,8.20
2023-01-07T00:19:11.974Z,7.80
2023-01-07T00:21:38.877Z,7.85
2023-01-07T00:24:06.638Z,7.32
2023-01-07T00:26:35.632Z,7.28
2023-01-07T00:29:03.630Z,6.00
2023-01-07T00:31:34.878Z,7.03
2023-01-07T00:34:02.344Z,7.70
2023-01-07T00:36:32.340Z,7.30
2023-01-07T00:39:20.515Z,6.55
2023-01-07T00:42:07.062Z,6.03
2023-01-07T00:44:34.621Z,6.15
2023-01-07T00:47:01.896Z,6.60
2023-01-07T00:49:28.766Z,6.28
2023-01-07T00:51:55.559Z,6.53
2023-01-07T00:54:23.403Z,6.53
2023-01-07T00:56:50.211Z,6.47
2023-01-07T00:59:16.999Z,6.15
2023-01-07T01:01:45.075Z,4.88
2023-01-07T01:04:12.020Z,6.20
2023-01-07T01:06:38.780Z,5.60
2023-01-07T01:09:06.878Z,5.53
2023-01-07T01:11:33.649Z,5.85
2023-01-07T01:14:00.475Z,8.25
2023-01-07T01:16:27.605Z,6.13
2023-01-07T01:18:54.386Z,6.47
2023-01-07T01:21:21.134Z,6.40
2023-01-07T01:23:47.979Z,6.78
2023-01-07T01:26:16.769Z,5.53
2023-01-07T01:28:44.759Z,6.55
2023-01-07T01:31:13.890Z,7.43
2023-01-07T01:33:53.790Z,6.93
2023-01-07T01:36:20.880Z,7.28
2023-01-07T01:38:47.699Z,7.70
2023-01-07T01:41:18.637Z,6.10
2023-01-07T01:43:46.797Z,6.20
2023-01-07T01:46:25.575Z,10.88
2023-01-07T01:48:59.092Z,7.57
2023-01-07T01:51:34.493Z,6.32
2023-01-07T01:54:05.117Z,7.07
2023-01-07T01:56:39.084Z,6.33
2023-01-07T01:59:14.172Z,5.57
2023-01-07T02:01:41.257Z,7.22
2023-01-07T02:04:15.327Z,6.55
2023-01-07T02:07:05.152Z,6.72
2023-01-07T02:09:33.966Z,6.87
2023-01-07T02:12:06.034Z,6.63
2023-01-07T02:15:00.667Z,6.65
2023-01-07T02:17:53.264Z,6.15
2023-01-07T02:20:50.326Z,6.13
2023-01-07T02:23:59.562Z,6.90
2023-01-07T02:26:41.871Z,6.53
2023-01-07T02:29:56.299Z,6.80
2023-01-07T02:32:48.783Z,6.95
2023-01-07T02:35:42.906Z,6.03
2023-01-07T02:38:54.224Z,5.97
2023-01-07T02:41:46.416Z,6.40
2023-01-07T02:44:31.916Z,5.90
2023-01-07T02:47:06.625Z,6.32
2023-01-07T02:49:34.798Z,6.38
2023-01-07T02:52:20.201Z,5.63
2023-01-07T02:54:56.564Z,5.70
2023-01-07T02:57:59.212Z,6.40
2023-01-07T03:00:25.985Z,6.28
2023-01-07T03:03:15.844Z,6.60
2023-01-07T03:06:00.874Z,6.17
2023-01-07T03:08:39.892Z,5.90
2023-01-07T03:11:10.039Z,6.00
2023-01-07T03:13:38.854Z,5.95
2023-01-07T03:16:11.666Z,5.90
2023-01-07T03:18:44.941Z,5.30
2023-01-07T03:21:14.897Z,5.53
2023-01-07T03:23:53.313Z,5.88
2023-01-07T03:26:24.174Z,6.00
2023-01-07T03:28:53.076Z,5.38
2023-01-07T03:31:22.498Z,5.07
2023-01-07T03:34:06.564Z,4.65
2023-01-07T03:36:39.131Z,5.38
2023-01-07T03:39:08.922Z,4.57
2023-01-07T03:41:54.205Z,4.82
2023-01-07T03:44:21.045Z,4.73
2023-01-07T03:46:49.734Z,4.97
2023-01-07T03:49:16.617Z,5.05
2023-01-07T03:51:43.828Z,5.30
2023-01-07T03:54:10.666Z,4.40
2023-01-07T03:56:37.497Z,4.30
2023-01-07T03:59:04.310Z,4.95
2023-01-07T04:01:31.790Z,4.82
2023-01-07T04:04:00.695Z,4.47
2023-01-07T04:06:29.420Z,4.82
2023-01-07T04:08:56.262Z,4.37
2023-01-07T04:11:23.074Z,4.45
2023-01-07T04:13:50.654Z,4.65
2023-01-07T04:16:17.669Z,5.03
2023-01-07T04:18:44.520Z,4.32
2023-01-07T04:21:11.368Z,4.50
2023-01-07T04:23:38.112Z,4.18
2023-01-07T04:26:05.221Z,4.35
2023-01-07T04:28:32.001Z,4.70
2023-01-07T04:31:00.096Z,5.03
2023-01-07T04:33:27.381Z,4.30
2023-01-07T04:35:54.403Z,4.80
2023-01-07T04:38:21.632Z,4.43
2023-01-07T04:40:48.381Z,4.32
2023-01-07T04:43:15.911Z,4.80
2023-01-07T04:45:42.761Z,4.60
2023-01-07T04:48:09.689Z,4.43
2023-01-07T04:50:36.726Z,5.60
2023-01-07T04:53:03.587Z,4.32
2023-01-07T04:55:31.279Z,4.18
2023-01-07T04:57:58.073Z,4.40
2023-01-07T05:00:24.849Z,4.53
2023-01-07T05:02:53.723Z,4.85
2023-01-07T05:05:21.879Z,4.47
2023-01-07T05:07:48.960Z,4.28
2023-01-07T05:10:17.475Z,3.70
2023-01-07T05:12:44.266Z,4.20
2023-01-07T05:15:13.364Z,4.10
2023-01-07T05:17:41.325Z,4.32
2023-01-07T05:20:08.818Z,4.10
2023-01-07T05:22:37.267Z,4.27
2023-01-07T05:25:05.197Z,4.18
2023-01-07T05:27:32.089Z,3.80
2023-01-07T05:30:00.179Z,3.90
2023-01-07T05:32:27.033Z,4.47
2023-01-07T05:34:53.793Z,3.77
2023-01-07T05:37:21.201Z,3.70
2023-01-07T05:39:48.063Z,3.67
2023-01-07T05:42:18.230Z,4.07
2023-01-07T05:44:45.158Z,3.90
2023-01-07T05:47:12.231Z,3.90
2023-01-07T05:49:38.982Z,3.38
2023-01-07T05:52:05.950Z,4.43
2023-01-07T05:54:32.695Z,3.67
2023-01-07T05:56:59.399Z,4.13
2023-01-07T05:59:26.228Z,3.87
2023-01-07T06:01:53.055Z,3.88
2023-01-07T06:04:20.009Z,3.60
2023-01-07T06:06:46.847Z,3.28
2023-01-07T06:09:13.743Z,4.07
2023-01-07T06:11:40.561Z,3.60
2023-01-07T06:14:07.305Z,3.42
2023-01-07T06:16:34.037Z,3.55
2023-01-07T06:19:00.744Z,3.42
2023-01-07T06:21:27.622Z,3.70
2023-01-07T06:23:55.513Z,3.47
2023-01-07T06:26:22.763Z,3.30
2023-01-07T06:28:51.863Z,3.53
2023-01-07T06:31:18.659Z,3.15
2023-01-07T06:33:45.497Z,3.42
2023-01-07T06:36:12.270Z,3.60
2023-01-07T06:38:38.959Z,3.28
2023-01-07T06:41:05.798Z,3.00
2023-01-07T06:43:32.599Z,3.47
2023-01-07T06:45:59.575Z,2.70
2023-01-07T06:48:26.398Z,2.87
2023-01-07T06:50:53.131Z,2.90
2023-01-07T06:53:19.908Z,2.60
2023-01-07T06:55:50.692Z,2.90
2023-01-07T06:58:18.217Z,2.80
2023-01-07T07:00:45.330Z,2.53
2023-01-07T07:03:12.302Z,3.40
2023-01-07T07:05:39.203Z,2.70
2023-01-07T07:08:06.459Z,2.70
2023-01-07T07:10:33.500Z,2.90
2023-01-07T07:13:00.510Z,2.53
2023-01-07T07:15:27.330Z,2.30
2023-01-07T07:17:54.111Z,2.47
2023-01-07T07:20:20.924Z,2.42
2023-01-07T07:22:48.550Z,2.40
2023-01-07T07:25:15.901Z,2.63
2023-01-07T07:27:46.207Z,2.60
2023-01-07T07:30:15.118Z,2.50
2023-01-07T07:32:42.855Z,2.20
2023-01-07T07:35:11.084Z,3.00
2023-01-07T07:37:38.019Z,2.70
2023-01-07T07:40:06.546Z,2.40
2023-01-07T07:43:11.885Z,2.40
2023-01-07T07:45:20.166Z,2.33
2023-01-07T07:47:47.273Z,2.67
2023-01-07T07:50:14.241Z,2.97
2023-01-07T07:52:41.206Z,2.80
2023-01-07T07:55:20.627Z,2.05
2023-01-07T07:57:58.174Z,2.15
2023-01-07T08:00:25.511Z,2.00
2023-01-07T08:02:52.395Z,1.70
2023-01-07T08:05:19.230Z,1.90
2023-01-07T08:07:46.257Z,2.05
2023-01-07T08:10:13.281Z,1.95
2023-01-07T08:12:40.035Z,2.00
2023-01-07T08:15:08.158Z,2.07
2023-01-07T08:17:36.267Z,3.08
2023-01-07T08:20:04.444Z,1.55
2023-01-07T08:22:31.425Z,1.95
2023-01-07T08:24:58.127Z,1.90
2023-01-07T08:27:27.677Z,1.93
2023-01-07T08:29:55.412Z,1.80
2023-01-07T08:32:22.419Z,2.00
2023-01-07T08:34:49.193Z,2.38
2023-01-07T08:37:16.623Z,2.28
2023-01-07T08:39:43.383Z,1.60
2023-01-07T08:42:10.131Z,2.05
2023-01-07T08:44:36.884Z,1.83
2023-01-07T08:47:03.706Z,1.80
2023-01-07T08:49:30.395Z,2.20
2023-01-07T08:51:57.171Z,1.37
2023-01-07T08:54:23.921Z,1.50
2023-01-07T08:56:50.669Z,1.77
2023-01-07T08:59:17.376Z,1.75
2023-01-07T09:01:44.247Z,1.80
2023-01-07T09:04:11.055Z,1.70
2023-01-07T09:06:37.845Z,2.00
2023-01-07T09:09:04.694Z,1.65
2023-01-07T09:11:31.476Z,1.65
2023-01-07T09:13:59.249Z,1.60
2023-01-07T09:16:26.004Z,1.50
2023-01-07T09:18:52.885Z,1.75
2023-01-07T09:21:19.663Z,1.90
2023-01-07T09:23:46.442Z,1.67
2023-01-07T09:26:13.283Z,1.50
2023-01-07T09:28:40.244Z,1.50
2023-01-07T09:31:07.926Z,1.50
2023-01-07T09:33:34.869Z,1.60
2023-01-07T09:36:01.614Z,2.05
2023-01-07T09:38:28.379Z,1.30
2023-01-07T09:40:56.574Z,1.40
2023-01-07T09:44:00.387Z,1.38
2023-01-07T09:46:28.575Z,1.70
2023-01-07T09:49:01.176Z,1.50
2023-01-07T09:51:34.846Z,2.00
2023-01-07T09:54:05.073Z,1.40
2023-01-07T09:56:34.278Z,1.52
2023-01-07T09:59:02.506Z,1.58
2023-01-07T10:01:35.177Z,1.33
2023-01-07T10:04:28.488Z,1.50
2023-01-07T10:07:11.837Z,1.20
2023-01-07T10:09:38.641Z,1.65
2023-01-07T10:12:21.196Z,1.63
2023-01-07T10:15:07.332Z,1.30
2023-01-07T10:17:36.982Z,2.08
2023-01-07T10:20:17.523Z,1.83
2023-01-07T10:23:21.884Z,1.60
2023-01-07T10:25:52.504Z,1.75
2023-01-07T10:28:32.583Z,1.70
2023-01-07T10:31:01.563Z,1.98
2023-01-07T10:33:32.081Z,1.80
2023-01-07T10:36:07.685Z,2.03
2023-01-07T10:38:37.474Z,1.90
2023-01-07T10:41:28.687Z,2.10
2023-01-07T10:44:14.225Z,1.80
2023-01-07T10:46:44.955Z,1.33
2023-01-07T10:49:31.953Z,1.40
2023-01-07T10:52:29.049Z,1.90
2023-01-07T10:55:01.538Z,2.00
2023-01-07T10:57:30.088Z,1.70
2023-01-07T11:00:02.505Z,1.50
2023-01-07T11:02:30.381Z,1.70
2023-01-07T11:04:58.472Z,1.70
2023-01-07T11:07:46.737Z,2.17
2023-01-07T11:10:24.075Z,3.00
2023-01-07T11:13:14.666Z,3.47
2023-01-07T11:15:52.963Z,2.10
2023-01-07T11:18:38.544Z,1.75
2023-01-07T11:21:05.391Z,1.50
2023-01-07T11:23:44.177Z,1.40
2023-01-07T11:26:16.423Z,1.70
2023-01-07T11:28:55.943Z,1.77
2023-01-07T11:31:43.322Z,1.83
2023-01-07T11:34:51.943Z,1.75
2023-01-07T11:37:35.235Z,1.30
2023-01-07T11:40:16.254Z,1.30
2023-01-07T11:43:15.414Z,1.50
2023-01-07T11:46:20.542Z,1.70
2023-01-07T11:49:00.845Z,1.77
2023-01-07T11:51:38.113Z,1.40
2023-01-07T11:54:04.954Z,1.40
2023-01-07T11:56:34.019Z,1.55
2023-01-07T11:59:15.922Z,1.60
2023-01-07T12:01:48.579Z,1.55
2023-01-07T12:04:40.237Z,1.40
2023-01-07T12:07:13.792Z,1.20
2023-01-07T12:09:42.455Z,1.25
2023-01-07T12:12:31.675Z,1.17
2023-01-07T12:15:05.233Z,1.30
2023-01-07T12:17:34.999Z,1.60
2023-01-07T12:20:10.727Z,1.40
2023-01-07T12:22:59.026Z,1.42
2023-01-07T12:25:34.660Z,1.50
2023-01-07T12:28:18.093Z,1.80
2023-01-07T12:31:07.877Z,1.83
2023-01-07T12:34:06.005Z,1.40
2023-01-07T12:36:47.893Z,1.33
2023-01-07T12:39:25.821Z,1.73
2023-01-07T12:42:02.128Z,1.50
2023-01-07T12:44:29.046Z,1.80
2023-01-07T12:47:30.834Z,1.60
2023-01-07T12:50:01.218Z,1.48
2023-01-07T12:52:51.497Z,1.80
2023-01-07T12:55:42.000Z,1.60
2023-01-07T12:58:32.834Z,1.52
2023-01-07T13:01:12.024Z,1.30
2023-01-07T13:03:53.667Z,1.85
2023-01-07T13:06:43.522Z,1.58
2023-01-07T13:09:26.138Z,1.90
2023-01-07T13:12:41.842Z,1.80
2023-01-07T13:15:10.000Z,2.67
2023-01-07T13:17:36.954Z,1.77
2023-01-07T13:20:11.447Z,1.90
2023-01-07T13:22:51.396Z,1.50
2023-01-07T13:25:48.338Z,1.63
2023-01-07T13:28:44.804Z,1.43
2023-01-07T13:31:11.585Z,1.83
2023-01-07T13:33:38.257Z,1.70
2023-01-07T13:37:03.510Z,1.75
2023-01-07T13:39:56.980Z,1.60
2023-01-07T13:42:45.065Z,1.30
2023-01-07T13:45:17.034Z,1.80
2023-01-07T13:47:51.788Z,2.03
2023-01-07T13:50:23.527Z,1.80
2023-01-07T13:53:02.728Z,1.65
2023-01-07T13:55:43.807Z,1.70
2023-01-07T13:58:35.682Z,1.90
2023-01-07T14:01:16.799Z,2.08
2023-01-07T14:03:53.206Z,1.95
2023-01-07T14:06:20.209Z,1.45
2023-01-07T14:08:50.569Z,1.80
2023-01-07T14:11:30.986Z,1.55
2023-01-07T14:14:19.546Z,1.85
2023-01-07T14:17:01.997Z,1.40
2023-01-07T14:19:59.528Z,1.40
2023-01-07T14:22:28.958Z,1.73
2023-01-07T14:25:03.966Z,2.20
2023-01-07T14:27:51.845Z,1.98
2023-01-07T14:30:34.802Z,1.67
2023-01-07T14:33:04.738Z,2.30
2023-01-07T14:35:38.782Z,2.17
2023-01-07T14:38:41.932Z,2.88
2023-01-07T14:41:13.817Z,3.42
2023-01-07T14:43:40.528Z,2.33
2023-01-07T14:46:22.751Z,1.98
2023-01-07T14:49:01.592Z,2.27
2023-01-07T14:51:46.775Z,2.38
2023-01-07T14:54:32.130Z,2.25
2023-01-07T14:57:22.956Z,2.28
2023-01-07T14:59:55.502Z,2.30
2023-01-07T15:02:25.114Z,2.97
2023-01-07T15:05:16.455Z,2.75
2023-01-07T15:07:48.148Z,2.70
2023-01-07T15:10:41.606Z,2.55
2023-01-07T15:13:34.613Z,2.72
2023-01-07T15:16:03.822Z,2.00
2023-01-07T15:18:33.809Z,2.22
2023-01-07T15:21:33.414Z,2.60
2023-01-07T15:24:02.975Z,2.83
2023-01-07T15:26:38.190Z,2.92
2023-01-07T15:29:24.557Z,2.13
2023-01-07T15:32:18.701Z,3.05
2023-01-07T15:34:45.547Z,2.70
2023-01-07T15:37:14.830Z,2.58
2023-01-07T15:39:48.530Z,2.70
2023-01-07T15:42:24.786Z,2.43
2023-01-07T15:44:59.083Z,2.40
2023-01-07T15:47:40.940Z,2.38
2023-01-07T15:50:37.496Z,2.53
2023-01-07T15:53:25.352Z,2.28
2023-01-07T15:56:07.285Z,2.43
2023-01-07T15:58:39.901Z,2.45
2023-01-07T16:01:11.904Z,2.70
2023-01-07T16:03:39.454Z,2.33
2023-01-07T16:06:35.734Z,2.80
2023-01-07T16:09:14.652Z,2.50
2023-01-07T16:11:41.531Z,3.00
2023-01-07T16:14:16.744Z,2.72
2023-01-07T16:16:43.664Z,2.35
2023-01-07T16:19:21.089Z,2.53
2023-01-07T16:21:54.225Z,1.83
2023-01-07T16:24:21.262Z,2.30
2023-01-07T16:27:05.175Z,2.15
2023-01-07T16:29:37.974Z,2.28
2023-01-07T16:32:08.256Z,2.28
2023-01-07T16:34:34.966Z,2.00
2023-01-07T16:37:03.576Z,2.08
2023-01-07T16:39:43.218Z,2.20
2023-01-07T16:42:23.304Z,2.00
2023-01-07T16:44:53.205Z,2.20
2023-01-07T16:47:31.478Z,2.60
2023-01-07T16:50:14.671Z,2.30
2023-01-07T16:52:55.981Z,3.10
2023-01-07T16:55:44.396Z,2.45
2023-01-07T16:58:46.978Z,2.50
2023-01-07T17:01:20.203Z,3.40
2023-01-07T17:03:59.652Z,2.80
2023-01-07T17:06:37.693Z,2.60
2023-01-07T17:09:04.751Z,2.30
2023-01-07T17:11:38.903Z,2.17
2023-01-07T17:14:34.595Z,2.60
2023-01-07T17:17:02.061Z,3.35
2023-01-07T17:19:38.377Z,3.55
2023-01-07T17:22:27.849Z,3.90
2023-01-07T17:25:19.943Z,3.03
2023-01-07T17:27:59.343Z,3.33
2023-01-07T17:30:33.181Z,4.25
2023-01-07T17:33:00.035Z,3.70
2023-01-07T17:35:26.925Z,3.15
2023-01-07T17:37:54.548Z,3.22
2023-01-07T17:40:21.303Z,2.80
2023-01-07T17:43:08.712Z,2.92
2023-01-07T17:45:35.704Z,3.20
2023-01-07T17:48:02.657Z,2.90
2023-01-07T17:50:36.725Z,2.88
2023-01-07T17:53:04.235Z,3.17
2023-01-07T17:55:34.235Z,3.20
2023-01-07T17:58:00.995Z,3.10
2023-01-07T18:00:30.823Z,3.20
2023-01-07T18:02:58.107Z,3.30
2023-01-07T18:05:26.376Z,3.67
2023-01-07T18:07:53.526Z,4.30
2023-01-07T18:10:25.741Z,3.53
2023-01-07T18:12:52.533Z,3.35
2023-01-07T18:15:27.725Z,3.10
2023-01-07T18:17:54.504Z,3.30
2023-01-07T18:20:22.118Z,2.90
2023-01-07T18:22:49.651Z,3.13
2023-01-07T18:25:21.315Z,3.15
2023-01-07T18:27:52.438Z,3.20
2023-01-07T18:30:20.989Z,3.90
2023-01-07T18:32:48.364Z,3.42
2023-01-07T18:35:15.590Z,3.75
2023-01-07T18:37:47.551Z,3.17
2023-01-07T18:40:14.506Z,3.47
2023-01-07T18:42:41.386Z,3.33
2023-01-07T18:45:08.536Z,3.20
2023-01-07T18:47:35.436Z,2.80
2023-01-07T18:50:02.523Z,3.80
2023-01-07T18:52:30.911Z,3.80
2023-01-07T18:54:57.887Z,3.20
2023-01-07T18:57:24.827Z,2.83
2023-01-07T18:59:51.553Z,12.48
2023-01-07T19:02:20.577Z,6.05
2023-01-07T19:04:48.365Z,17.40
2023-01-07T19:07:16.178Z,4.03
2023-01-07T19:09:43.198Z,4.00
2023-01-07T19:12:12.091Z,3.28
2023-01-07T19:14:39.677Z,10.85
2023-01-07T19:17:10.756Z,5.70
2023-01-07T19:19:47.770Z,3.87
2023-01-07T19:22:16.056Z,4.85
2023-01-07T19:24:43.187Z,3.60
2023-01-07T19:27:10.408Z,3.30
2023-01-07T19:29:37.268Z,3.20
2023-01-07T19:32:04.276Z,3.23
2023-01-07T19:34:31.723Z,3.20
2023-01-07T19:36:58.738Z,3.40
2023-01-07T19:39:28.279Z,4.05
2023-01-07T19:41:55.484Z,3.47
2023-01-07T19:44:29.812Z,3.67
2023-01-07T19:46:56.596Z,3.88
2023-01-07T19:49:23.930Z,3.50
2023-01-07T19:51:52.483Z,2.83
2023-01-07T19:54:19.345Z,3.03
2023-01-07T19:56:46.089Z,3.27
2023-01-07T19:59:13.002Z,2.85
2023-01-07T20:01:39.973Z,3.38
2023-01-07T20:04:08.327Z,2.95
2023-01-07T20:06:38.893Z,3.25
2023-01-07T20:09:08.405Z,3.10
2023-01-07T20:11:35.284Z,3.10
2023-01-07T20:14:01.970Z,3.03
2023-01-07T20:16:28.810Z,3.50
2023-01-07T20:18:55.971Z,3.30
2023-01-07T20:21:28.235Z,2.80
2023-01-07T20:23:55.312Z,3.40
2023-01-07T20:26:28.243Z,3.40
2023-01-07T20:28:56.153Z,4.30
2023-01-07T20:31:24.624Z,3.97
2023-01-07T20:33:51.893Z,3.53
2023-01-07T20:36:20.831Z,2.88
2023-01-07T20:38:48.157Z,3.35
2023-01-07T20:41:24.418Z,3.05
2023-01-07T20:43:56.892Z,3.90
2023-01-07T20:46:24.980Z,3.33
2023-01-07T20:48:51.823Z,3.25
2023-01-07T20:51:19.159Z,4.15
2023-01-07T20:53:49.349Z,3.80
2023-01-07T20:56:21.241Z,3.03
2023-01-07T20:58:49.852Z,3.40
2023-01-07T21:01:19.647Z,3.20
2023-01-07T21:03:46.984Z,3.22
2023-01-07T21:06:15.444Z,2.90
2023-01-07T21:08:42.196Z,2.60
2023-01-07T21:11:13.958Z,2.50
2023-01-07T21:13:40.951Z,3.10
2023-01-07T21:16:08.141Z,3.03
2023-01-07T21:18:35.424Z,3.15
2023-01-07T21:21:07.853Z,2.88
2023-01-07T21:23:34.741Z,2.73
2023-01-07T21:26:01.468Z,2.55
2023-01-07T21:28:28.195Z,2.55
2023-01-07T21:30:54.892Z,2.40
2023-01-07T21:33:21.683Z,2.80
2023-01-07T21:35:48.437Z,2.40
2023-01-07T21:38:15.241Z,2.78
2023-01-07T21:40:41.947Z,2.55
2023-01-07T21:43:08.674Z,3.20
2023-01-07T21:45:36.821Z,2.50
2023-01-07T21:48:03.763Z,2.47
2023-01-07T21:50:30.504Z,2.33
2023-01-07T21:52:57.689Z,2.70
2023-01-07T21:55:24.508Z,2.13
2023-01-07T21:57:51.279Z,3.50
2023-01-07T22:00:18.105Z,2.60
2023-01-07T22:02:44.966Z,2.67
2023-01-07T22:05:12.022Z,2.35
2023-01-07T22:07:39.322Z,2.55
2023-01-07T22:10:06.444Z,2.92
2023-01-07T22:12:33.146Z,2.53
2023-01-07T22:15:00.492Z,2.80
2023-01-07T22:17:27.342Z,2.95
2023-01-07T22:19:54.133Z,2.78
2023-01-07T22:22:20.959Z,2.83
2023-01-07T22:24:47.834Z,2.97
2023-01-07T22:27:14.620Z,3.63
2023-01-07T22:29:42.198Z,3.00
2023-01-07T22:32:08.908Z,3.40
2023-01-07T22:34:35.710Z,2.92
2023-01-07T22:37:07.383Z,3.10
2023-01-07T22:39:41.423Z,3.60
2023-01-07T22:42:24.821Z,3.40
2023-01-07T22:44:56.908Z,3.55
2023-01-07T22:47:30.250Z,3.20
2023-01-07T22:49:58.939Z,2.60
2023-01-07T22:52:25.825Z,3.15
2023-01-07T22:54:52.923Z,3.00
2023-01-07T22:57:19.800Z,2.95
2023-01-07T22:59:47.289Z,2.60
2023-01-07T23:02:14.190Z,2.53
2023-01-07T23:04:40.928Z,2.50
2023-01-07T23:07:07.692Z,2.88
2023-01-07T23:09:34.457Z,2.55
2023-01-07T23:12:01.772Z,3.08
2023-01-07T23:14:30.112Z,3.00
2023-01-07T23:16:59.334Z,2.50
2023-01-07T23:19:26.078Z,3.05
2023-01-07T23:21:54.321Z,3.00
2023-01-07T23:24:22.412Z,2.95
2023-01-07T23:26:51.532Z,3.00
2023-01-07T23:29:18.522Z,2.63
2023-01-07T23:31:45.989Z,2.70
2023-01-07T23:34:13.815Z,2.83
2023-01-07T23:36:40.543Z,2.83
2023-01-07T23:39:07.546Z,2.50
2023-01-07T23:41:34.324Z,2.67
2023-01-07T23:44:01.106Z,2.88
2023-01-07T23:46:27.920Z,2.60
2023-01-07T23:48:54.658Z,2.83
2023-01-07T23:51:22.186Z,2.10
2023-01-07T23:53:49.341Z,1.40
2023-01-07T23:56:19.079Z,1.30
2023-01-07T23:58:46.117Z,1.67
